Terminal Aerodrome Forecast
Issued by NWS

Home | Current Version | Previous Version | Text Only | Print | Product List | Glossary On
Versions: 1 2 3 4 5 6 7 8 9 10 11 12 13 14 15 16 17 18 19
000
FTUS45 KLKN 262003 AAA
TAFELY
TAF AMD
KELY 262003Z 2620/2718 01012KT P6SM VCTS SCT040CB BKN070
      TEMPO 2620/2623 35015G25KT P6SM -TSRAGS OVC040CB
     FM270200 34005KT P6SM VCSH BKN050 BKN070
     FM270700 19007KT P6SM FEW050 SCT090 BKN170=

USA.gov is the U.S. government's official web portal to all federal, state and local government web resources and services.